createdAt,value
2018-12-08T00:02:06.121Z,0.63
2018-12-08T00:06:57.027Z,0.90
2018-12-08T00:11:47.952Z,0.80
2018-12-08T00:16:38.841Z,0.80
2018-12-08T00:21:30.478Z,0.70
2018-12-08T00:26:22.102Z,0.90
2018-12-08T00:31:25.635Z,0.70
2018-12-08T00:36:16.535Z,0.80
2018-12-08T00:41:08.183Z,1.40
2018-12-08T00:45:59.822Z,1.37
2018-12-08T00:50:51.470Z,1.30
2018-12-08T00:55:42.431Z,1.50
2018-12-08T01:00:34.057Z,2.13
2018-12-08T01:05:24.970Z,1.37
2018-12-08T01:10:15.883Z,1.90
2018-12-08T01:15:06.807Z,1.80
2018-12-08T01:19:57.690Z,1.80
2018-12-08T01:24:49.324Z,2.03
2018-12-08T01:29:40.287Z,2.10
2018-12-08T01:34:31.182Z,1.87
2018-12-08T01:39:22.122Z,1.80
2018-12-08T01:44:13.018Z,1.70
2018-12-08T01:49:03.979Z,2.43
2018-12-08T01:53:54.892Z,2.13
2018-12-08T01:58:45.785Z,2.27
2018-12-08T02:03:36.683Z,2.13
2018-12-08T02:08:27.585Z,2.30
2018-12-08T02:13:19.296Z,2.50
2018-12-08T02:18:10.208Z,2.37
2018-12-08T02:23:01.122Z,2.40
2018-12-08T02:27:52.023Z,2.83
2018-12-08T02:32:42.925Z,2.40
2018-12-08T02:37:33.831Z,1.80
2018-12-08T02:42:24.763Z,2.30
2018-12-08T02:47:15.667Z,2.23
2018-12-08T02:52:06.588Z,2.60
2018-12-08T02:56:57.561Z,2.40
2018-12-08T03:01:48.485Z,2.33
2018-12-08T03:06:40.192Z,2.37
2018-12-08T03:11:31.234Z,2.47
2018-12-08T03:16:22.148Z,2.93
2018-12-08T03:21:13.055Z,2.40
2018-12-08T03:26:03.963Z,2.60
2018-12-08T03:30:54.858Z,2.70
2018-12-08T03:35:45.764Z,2.23
2018-12-08T03:40:37.469Z,2.53
2018-12-08T03:45:28.396Z,2.40
2018-12-08T03:50:20.064Z,2.43
2018-12-08T03:55:11.011Z,2.40
2018-12-08T04:00:01.966Z,2.30
2018-12-08T04:04:52.881Z,1.90
2018-12-08T04:09:43.797Z,2.30
2018-12-08T04:14:34.713Z,2.60
2018-12-08T04:19:25.636Z,1.90
2018-12-08T04:24:16.543Z,2.07
2018-12-08T04:29:07.506Z,2.80
2018-12-08T04:33:59.160Z,2.63
2018-12-08T04:38:50.078Z,2.20
2018-12-08T04:43:40.984Z,2.20
2018-12-08T04:48:32.680Z,2.27
2018-12-08T04:53:23.589Z,2.20
2018-12-08T04:58:14.495Z,2.40
2018-12-08T05:03:05.399Z,2.27
2018-12-08T05:07:56.345Z,2.53
2018-12-08T05:12:47.261Z,2.63
2018-12-08T05:17:38.186Z,2.33
2018-12-08T05:22:29.125Z,1.80
2018-12-08T05:27:20.080Z,3.17
2018-12-08T05:32:11.713Z,2.20
2018-12-08T05:37:02.610Z,2.53
2018-12-08T05:41:54.251Z,2.97
2018-12-08T05:46:45.909Z,2.70
2018-12-08T05:51:36.816Z,2.33
2018-12-08T05:56:28.465Z,2.40
2018-12-08T06:01:19.384Z,2.90
2018-12-08T06:06:10.295Z,3.17
2018-12-08T06:11:01.197Z,2.30
2018-12-08T06:15:52.843Z,2.30
2018-12-08T06:20:44.500Z,2.27
2018-12-08T06:25:35.452Z,2.60
2018-12-08T06:30:26.360Z,2.90
2018-12-08T06:35:17.295Z,2.20
2018-12-08T06:40:08.204Z,2.63
2018-12-08T06:44:59.164Z,2.30
2018-12-08T06:49:50.812Z,2.10
2018-12-08T06:54:42.520Z,2.00
2018-12-08T06:59:33.436Z,2.00
2018-12-08T07:04:25.092Z,1.87
2018-12-08T07:09:16.808Z,2.27
2018-12-08T07:14:07.815Z,2.03
2018-12-08T07:18:58.766Z,2.27
2018-12-08T07:23:50.402Z,1.93
2018-12-08T07:28:42.117Z,2.27
2018-12-08T07:33:33.020Z,1.83
2018-12-08T07:38:23.927Z,2.30
2018-12-08T07:43:14.839Z,2.10
2018-12-08T07:48:05.738Z,2.13
2018-12-08T07:52:56.713Z,2.07
2018-12-08T07:57:47.610Z,1.80
2018-12-08T08:02:38.506Z,2.47
2018-12-08T08:07:29.459Z,1.80
2018-12-08T08:12:20.388Z,2.00
2018-12-08T08:17:11.336Z,1.90
2018-12-08T08:22:03.059Z,1.90
2018-12-08T08:26:54.739Z,1.60
2018-12-08T08:31:45.687Z,1.60
2018-12-08T08:36:36.606Z,1.30
2018-12-08T08:41:27.508Z,1.70
2018-12-08T08:46:18.415Z,1.50
2018-12-08T08:51:09.324Z,1.50
2018-12-08T08:56:00.292Z,1.90
2018-12-08T09:00:52.245Z,1.40
2018-12-08T09:05:42.954Z,2.13
2018-12-08T09:10:33.863Z,1.70
2018-12-08T09:15:24.773Z,1.40
2018-12-08T09:20:15.684Z,1.40
2018-12-08T09:25:06.616Z,2.07
2018-12-08T09:29:57.536Z,1.10
2018-12-08T09:34:48.453Z,1.93
2018-12-08T09:39:39.377Z,1.43
2018-12-08T09:44:30.460Z,1.93
2018-12-08T09:49:21.353Z,1.07
2018-12-08T09:54:13.003Z,1.40
2018-12-08T09:59:03.932Z,1.13
2018-12-08T10:03:54.844Z,1.13
2018-12-08T10:08:52.790Z,1.00
2018-12-08T10:13:43.696Z,1.33
2018-12-08T10:18:36.087Z,1.40
2018-12-08T10:23:27.732Z,1.40
2018-12-08T10:28:18.639Z,1.00
2018-12-08T10:33:10.278Z,1.00
2018-12-08T10:38:01.924Z,1.30
2018-12-08T10:42:52.813Z,1.20
2018-12-08T10:47:44.478Z,0.97
2018-12-08T10:52:35.402Z,1.40
2018-12-08T10:57:26.299Z,1.23
2018-12-08T11:02:24.109Z,1.13
2018-12-08T11:07:15.027Z,1.60
2018-12-08T11:12:05.950Z,1.20
2018-12-08T11:16:56.852Z,1.10
2018-12-08T11:21:47.751Z,1.43
2018-12-08T11:26:39.401Z,1.43
2018-12-08T11:31:30.307Z,1.80
2018-12-08T11:36:21.945Z,1.43
2018-12-08T11:41:13.593Z,1.10
2018-12-08T11:46:04.493Z,1.20
2018-12-08T11:50:56.134Z,1.30
2018-12-08T11:55:47.774Z,1.27
2018-12-08T12:00:39.409Z,0.80
2018-12-08T12:05:31.062Z,1.00
2018-12-08T12:10:21.976Z,1.33
2018-12-08T12:15:12.883Z,1.40
2018-12-08T12:20:05.119Z,0.83
2018-12-08T12:24:56.777Z,1.30
2018-12-08T12:29:47.677Z,1.07
2018-12-08T12:34:39.328Z,1.00
2018-12-08T12:39:30.231Z,1.10
2018-12-08T12:44:22.216Z,0.90
2018-12-08T12:49:13.120Z,1.10
2018-12-08T12:54:04.046Z,0.80
2018-12-08T12:58:54.960Z,0.70
2018-12-08T13:03:45.881Z,1.00
2018-12-08T13:08:36.803Z,1.27
2018-12-08T13:13:27.693Z,1.37
2018-12-08T13:18:19.397Z,0.80
2018-12-08T13:23:11.801Z,1.33
2018-12-08T13:28:02.703Z,0.90
2018-12-08T13:32:54.351Z,0.80
2018-12-08T13:37:45.251Z,0.80
2018-12-08T13:42:36.908Z,0.90
2018-12-08T13:47:27.810Z,0.87
2018-12-08T13:52:19.325Z,1.00
2018-12-08T13:57:10.979Z,0.90
2018-12-08T14:02:02.628Z,1.07
2018-12-08T14:06:53.623Z,1.40
2018-12-08T14:11:45.275Z,0.90
2018-12-08T14:16:36.189Z,0.70
2018-12-08T14:21:27.872Z,1.20
2018-12-08T14:26:18.779Z,1.00
2018-12-08T14:31:09.688Z,0.93
2018-12-08T14:36:00.592Z,0.90
2018-12-08T14:40:51.508Z,0.80
2018-12-08T14:45:42.425Z,1.23
2018-12-08T14:50:34.073Z,1.00
2018-12-08T14:55:25.021Z,1.40
2018-12-08T15:00:16.097Z,1.00
2018-12-08T15:05:07.757Z,1.10
2018-12-08T15:09:58.726Z,1.33
2018-12-08T15:14:49.687Z,1.27
2018-12-08T15:19:40.620Z,1.00
2018-12-08T15:24:31.523Z,1.10
2018-12-08T15:29:22.417Z,1.13
2018-12-08T15:34:14.147Z,1.17
2018-12-08T15:39:05.047Z,1.13
2018-12-08T15:43:55.940Z,1.30
2018-12-08T15:48:47.105Z,1.10
2018-12-08T15:53:38.852Z,0.80
2018-12-08T15:58:30.500Z,0.83
2018-12-08T16:03:22.133Z,0.87
2018-12-08T16:08:13.812Z,1.33
2018-12-08T16:13:04.715Z,1.00
2018-12-08T16:17:56.391Z,1.00
2018-12-08T16:22:47.755Z,0.93
2018-12-08T16:27:39.390Z,1.10
2018-12-08T16:32:31.073Z,1.20
2018-12-08T16:37:22.048Z,1.90
2018-12-08T16:42:13.707Z,0.97
2018-12-08T16:47:05.169Z,0.93
2018-12-08T16:51:56.072Z,0.90
2018-12-08T16:56:46.980Z,1.10
2018-12-08T17:01:37.887Z,1.10
2018-12-08T17:06:28.816Z,1.10
2018-12-08T17:11:19.712Z,1.20
2018-12-08T17:16:10.639Z,1.43
2018-12-08T17:21:01.576Z,1.37
2018-12-08T17:25:52.465Z,1.33
2018-12-08T17:30:44.165Z,0.90
2018-12-08T17:35:35.077Z,1.47
2018-12-08T17:40:25.973Z,1.20
2018-12-08T17:45:16.863Z,1.60
2018-12-08T17:50:07.759Z,1.67
2018-12-08T17:54:59.475Z,1.70
2018-12-08T17:59:50.395Z,2.30
2018-12-08T18:04:41.303Z,1.80
2018-12-08T18:09:32.458Z,2.03
2018-12-08T18:14:24.121Z,1.70
2018-12-08T18:19:15.041Z,1.43
2018-12-08T18:24:05.955Z,1.70
2018-12-08T18:28:56.939Z,1.40
2018-12-08T18:33:47.912Z,1.37
2018-12-08T18:38:38.844Z,1.40
2018-12-08T18:43:29.793Z,1.80
2018-12-08T18:48:20.704Z,1.93
2018-12-08T18:53:11.799Z,1.80
2018-12-08T18:58:02.749Z,1.93
2018-12-08T19:02:53.653Z,1.97
2018-12-08T19:07:44.577Z,1.80
2018-12-08T19:12:35.503Z,2.20
2018-12-08T19:17:26.433Z,2.30
2018-12-08T19:22:17.436Z,2.37
2018-12-08T19:27:08.373Z,1.90
2018-12-08T19:31:59.381Z,1.77
2018-12-08T19:36:50.360Z,2.20
2018-12-08T19:41:41.328Z,2.40
2018-12-08T19:46:32.687Z,1.80
2018-12-08T19:51:24.397Z,2.10
2018-12-08T19:56:15.424Z,1.63
2018-12-08T20:01:06.337Z,1.90
2018-12-08T20:05:57.352Z,1.90
2018-12-08T20:10:48.275Z,1.50
2018-12-08T20:15:39.315Z,2.30
2018-12-08T20:20:31.030Z,2.07
2018-12-08T20:25:21.954Z,2.30
2018-12-08T20:30:12.962Z,1.63
2018-12-08T20:35:03.885Z,1.87
2018-12-08T20:39:54.807Z,2.07
2018-12-08T20:44:45.717Z,1.93
2018-12-08T20:49:36.643Z,2.23
2018-12-08T20:54:27.646Z,2.00
2018-12-08T20:59:19.312Z,2.00
2018-12-08T21:04:10.335Z,1.77
2018-12-08T21:09:01.234Z,1.90
2018-12-08T21:13:52.159Z,2.00
2018-12-08T21:18:43.079Z,2.40
2018-12-08T21:23:33.991Z,1.87
2018-12-08T21:28:24.927Z,2.43
2018-12-08T21:33:16.639Z,2.27
2018-12-08T21:38:07.676Z,1.97
2018-12-08T21:42:58.581Z,2.00
2018-12-08T21:47:49.484Z,1.73
2018-12-08T21:52:40.425Z,2.10
2018-12-08T21:57:31.348Z,2.40
2018-12-08T22:02:22.258Z,2.27
2018-12-08T22:07:13.194Z,2.20
2018-12-08T22:12:04.212Z,1.80
2018-12-08T22:16:55.260Z,1.90
2018-12-08T22:21:46.969Z,1.63
2018-12-08T22:26:37.883Z,1.60
2018-12-08T22:31:28.924Z,1.50
2018-12-08T22:36:19.909Z,1.40
2018-12-08T22:41:10.856Z,2.00
2018-12-08T22:46:01.868Z,1.30
2018-12-08T22:50:52.789Z,1.60
2018-12-08T22:55:43.888Z,2.23
2018-12-08T23:00:41.045Z,2.00
2018-12-08T23:05:31.988Z,1.57
2018-12-08T23:10:22.891Z,1.73
2018-12-08T23:15:13.795Z,1.40
2018-12-08T23:20:04.729Z,1.27
2018-12-08T23:24:55.668Z,1.50
2018-12-08T23:29:46.570Z,2.00
2018-12-08T23:34:37.965Z,1.70
2018-12-08T23:39:28.433Z,1.70
2018-12-08T23:44:19.444Z,1.43
2018-12-08T23:49:11.404Z,1.93
2018-12-08T23:54:01.583Z,2.60
2018-12-08T23:58:52.516Z,1.80
